sensor_id;sensor_type;location;lat;lon;timestamp;pressure;altitude;pressure_sealevel;temperature;humidity
65010;BME280;51556;50.002;22.014;2023-03-20T00:02:22;99220.88;;;5.95;56.37
65010;BME280;51556;50.002;22.014;2023-03-20T00:04:48;99220.53;;;5.95;56.26
65010;BME280;51556;50.002;22.014;2023-03-20T00:07:13;99222.27;;;5.96;56.32
65010;BME280;51556;50.002;22.014;2023-03-20T00:09:39;99221.91;;;5.97;56.39
65010;BME280;51556;50.002;22.014;2023-03-20T00:12:05;99219.98;;;5.97;56.81
65010;BME280;51556;50.002;22.014;2023-03-20T00:14:30;99223.48;;;5.96;56.65
65010;BME280;51556;50.002;22.014;2023-03-20T00:16:58;99220.39;;;5.93;56.90
65010;BME280;51556;50.002;22.014;2023-03-20T00:19:27;99217.45;;;5.89;56.81
65010;BME280;51556;50.002;22.014;2023-03-20T00:21:56;99216.93;;;5.87;56.83
65010;BME280;51556;50.002;22.014;2023-03-20T00:24:22;99217.81;;;5.85;56.96
65010;BME280;51556;50.002;22.014;2023-03-20T00:26:50;99214.48;;;5.87;57.14
65010;BME280;51556;50.002;22.014;2023-03-20T00:29:22;99213.42;;;5.88;57.27
65010;BME280;51556;50.002;22.014;2023-03-20T00:31:49;99209.41;;;5.88;57.43
65010;BME280;51556;50.002;22.014;2023-03-20T00:34:17;99208.90;;;5.89;57.60
65010;BME280;51556;50.002;22.014;2023-03-20T00:36:43;99206.97;;;5.90;57.25
65010;BME280;51556;50.002;22.014;2023-03-20T00:39:09;99209.72;;;5.94;57.28
65010;BME280;51556;50.002;22.014;2023-03-20T00:44:36;99210.74;;;5.95;57.23
65010;BME280;51556;50.002;22.014;2023-03-20T00:47:05;99210.04;;;5.96;57.16
65010;BME280;51556;50.002;22.014;2023-03-20T00:49:36;99207.73;;;5.98;57.05
65010;BME280;51556;50.002;22.014;2023-03-20T00:52:03;99212.98;;;5.98;56.88
65010;BME280;51556;50.002;22.014;2023-03-20T00:54:30;99211.38;;;6.01;57.05
65010;BME280;51556;50.002;22.014;2023-03-20T00:56:59;99210.51;;;6.03;56.88
65010;BME280;51556;50.002;22.014;2023-03-20T00:59:29;99208.42;;;6.01;56.95
65010;BME280;51556;50.002;22.014;2023-03-20T01:01:56;99206.51;;;6.00;56.94
65010;BME280;51556;50.002;22.014;2023-03-20T01:04:22;99203.36;;;5.99;57.11
65010;BME280;51556;50.002;22.014;2023-03-20T01:06:48;99201.15;;;5.94;57.17
65010;BME280;51556;50.002;22.014;2023-03-20T01:09:14;99199.45;;;5.90;57.20
65010;BME280;51556;50.002;22.014;2023-03-20T01:11:40;99198.77;;;5.86;57.53
65010;BME280;51556;50.002;22.014;2023-03-20T01:14:12;99202.46;;;5.83;57.34
65010;BME280;51556;50.002;22.014;2023-03-20T01:16:38;99200.72;;;5.82;57.80
65010;BME280;51556;50.002;22.014;2023-03-20T01:19:04;99196.90;;;5.80;57.74
65010;BME280;51556;50.002;22.014;2023-03-20T01:21:30;99200.20;;;5.81;57.64
65010;BME280;51556;50.002;22.014;2023-03-20T01:23:55;99195.66;;;5.82;57.65
65010;BME280;51556;50.002;22.014;2023-03-20T01:26:26;99198.59;;;5.86;57.88
65010;BME280;51556;50.002;22.014;2023-03-20T01:28:56;99204.70;;;5.87;57.45
65010;BME280;51556;50.002;22.014;2023-03-20T01:31:21;99209.23;;;5.88;57.80
65010;BME280;51556;50.002;22.014;2023-03-20T01:33:46;99212.56;;;5.87;57.76
65010;BME280;51556;50.002;22.014;2023-03-20T01:36:14;99210.49;;;5.83;57.52
65010;BME280;51556;50.002;22.014;2023-03-20T01:38:42;99211.03;;;5.81;57.84
65010;BME280;51556;50.002;22.014;2023-03-20T01:41:15;99211.91;;;5.81;57.78
65010;BME280;51556;50.002;22.014;2023-03-20T01:43:43;99215.24;;;5.79;57.79
65010;BME280;51556;50.002;22.014;2023-03-20T01:51:27;99218.41;;;5.75;57.96
65010;BME280;51556;50.002;22.014;2023-03-20T01:53:57;99217.41;;;5.69;57.98
65010;BME280;51556;50.002;22.014;2023-03-20T01:56:24;99212.55;;;5.65;58.29
65010;BME280;51556;50.002;22.014;2023-03-20T01:58:56;99216.23;;;5.64;58.17
65010;BME280;51556;50.002;22.014;2023-03-20T02:01:23;99213.45;;;5.61;58.42
65010;BME280;51556;50.002;22.014;2023-03-20T02:03:50;99210.85;;;5.59;58.15
65010;BME280;51556;50.002;22.014;2023-03-20T02:06:17;99207.23;;;5.57;58.44
65010;BME280;51556;50.002;22.014;2023-03-20T02:08:48;99210.92;;;5.54;58.18
65010;BME280;51556;50.002;22.014;2023-03-20T02:11:14;99211.27;;;5.54;58.38
65010;BME280;51556;50.002;22.014;2023-03-20T02:13:41;99212.50;;;5.54;58.79
65010;BME280;51556;50.002;22.014;2023-03-20T02:16:11;99213.90;;;5.53;58.71
65010;BME280;51556;50.002;22.014;2023-03-20T02:18:39;99213.04;;;5.51;58.56
65010;BME280;51556;50.002;22.014;2023-03-20T02:40:57;99199.30;;;5.42;58.76
65010;BME280;51556;50.002;22.014;2023-03-20T02:43:53;99195.49;;;5.37;59.05
65010;BME280;51556;50.002;22.014;2023-03-20T02:46:33;99195.71;;;5.30;59.50
65010;BME280;51556;50.002;22.014;2023-03-20T02:52:21;99194.25;;;5.17;59.74
65010;BME280;51556;50.002;22.014;2023-03-20T02:55:12;99194.29;;;5.12;59.42
65010;BME280;51556;50.002;22.014;2023-03-20T02:57:58;99195.04;;;5.04;60.18
65010;BME280;51556;50.002;22.014;2023-03-20T03:00:33;99192.26;;;5.00;60.38
65010;BME280;51556;50.002;22.014;2023-03-20T03:03:23;99189.83;;;4.99;60.34
65010;BME280;51556;50.002;22.014;2023-03-20T03:06:00;99190.52;;;5.00;60.22
65010;BME280;51556;50.002;22.014;2023-03-20T03:08:34;99187.89;;;5.02;59.84
65010;BME280;51556;50.002;22.014;2023-03-20T03:11:06;99187.35;;;5.03;60.13
65010;BME280;51556;50.002;22.014;2023-03-20T03:13:36;99188.06;;;5.01;60.25
65010;BME280;51556;50.002;22.014;2023-03-20T03:16:07;99186.69;;;4.95;60.50
65010;BME280;51556;50.002;22.014;2023-03-20T03:18:34;99184.61;;;4.94;60.22
65010;BME280;51556;50.002;22.014;2023-03-20T03:21:03;99186.16;;;4.97;60.16
65010;BME280;51556;50.002;22.014;2023-03-20T03:23:34;99187.04;;;4.97;60.36
65010;BME280;51556;50.002;22.014;2023-03-20T03:26:03;99184.95;;;4.97;59.87
65010;BME280;51556;50.002;22.014;2023-03-20T03:28:36;99187.20;;;4.98;60.22
65010;BME280;51556;50.002;22.014;2023-03-20T03:31:07;99187.20;;;4.99;60.82
65010;BME280;51556;50.002;22.014;2023-03-20T03:33:36;99185.12;;;4.99;60.33
65010;BME280;51556;50.002;22.014;2023-03-20T03:38:58;99187.92;;;4.95;60.67
65010;BME280;51556;50.002;22.014;2023-03-20T03:44:10;99191.09;;;4.89;60.62
65010;BME280;51556;50.002;22.014;2023-03-20T03:49:19;99191.95;;;4.92;60.53
65010;BME280;51556;50.002;22.014;2023-03-20T03:51:48;99188.64;;;4.91;60.19
65010;BME280;51556;50.002;22.014;2023-03-20T03:54:29;99184.98;;;4.91;61.06
65010;BME280;51556;50.002;22.014;2023-03-20T03:56:57;99184.80;;;4.92;60.69
65010;BME280;51556;50.002;22.014;2023-03-20T03:59:29;99186.38;;;4.89;61.02
65010;BME280;51556;50.002;22.014;2023-03-20T04:01:57;99185.86;;;4.89;61.14
65010;BME280;51556;50.002;22.014;2023-03-20T04:04:24;99187.42;;;4.90;61.00
65010;BME280;51556;50.002;22.014;2023-03-20T04:06:52;99186.55;;;4.91;60.98
65010;BME280;51556;50.002;22.014;2023-03-20T04:09:17;99187.06;;;4.93;60.88
65010;BME280;51556;50.002;22.014;2023-03-20T04:11:49;99190.37;;;4.94;60.63
65010;BME280;51556;50.002;22.014;2023-03-20T04:14:15;99185.66;;;4.94;60.91
65010;BME280;51556;50.002;22.014;2023-03-20T04:16:41;99186.87;;;4.95;60.88
65010;BME280;51556;50.002;22.014;2023-03-20T04:19:06;99186.17;;;4.95;60.63
65010;BME280;51556;50.002;22.014;2023-03-20T04:21:32;99190.70;;;4.95;60.76
65010;BME280;51556;50.002;22.014;2023-03-20T04:23:57;99189.16;;;4.93;61.18
65010;BME280;51556;50.002;22.014;2023-03-20T04:26:23;99188.11;;;4.92;61.43
65010;BME280;51556;50.002;22.014;2023-03-20T04:28:49;99188.83;;;4.87;60.89
65010;BME280;51556;50.002;22.014;2023-03-20T04:31:15;99186.74;;;4.86;61.06
65010;BME280;51556;50.002;22.014;2023-03-20T04:33:40;99189.52;;;4.87;61.59
65010;BME280;51556;50.002;22.014;2023-03-20T04:36:07;99190.92;;;4.90;61.47
65010;BME280;51556;50.002;22.014;2023-03-20T04:38:32;99190.89;;;4.93;61.28
65010;BME280;51556;50.002;22.014;2023-03-20T04:40:58;99186.67;;;5.01;60.96
65010;BME280;51556;50.002;22.014;2023-03-20T04:43:23;99186.28;;;5.07;60.91
65010;BME280;51556;50.002;22.014;2023-03-20T04:45:48;99192.54;;;5.12;61.15
65010;BME280;51556;50.002;22.014;2023-03-20T04:48:14;99191.14;;;5.12;60.87
65010;BME280;51556;50.002;22.014;2023-03-20T04:50:40;99193.75;;;5.15;60.92
65010;BME280;51556;50.002;22.014;2023-03-20T04:53:05;99196.15;;;5.19;60.96
65010;BME280;51556;50.002;22.014;2023-03-20T04:55:31;99197.16;;;5.23;60.89
65010;BME280;51556;50.002;22.014;2023-03-20T04:57:56;99196.43;;;5.26;61.05
65010;BME280;51556;50.002;22.014;2023-03-20T05:00:22;99191.89;;;5.28;60.97
65010;BME280;51556;50.002;22.014;2023-03-20T05:02:48;99195.91;;;5.27;61.18
65010;BME280;51556;50.002;22.014;2023-03-20T05:05:13;99197.31;;;5.26;60.81
65010;BME280;51556;50.002;22.014;2023-03-20T05:07:38;99202.36;;;5.28;61.07
65010;BME280;51556;50.002;22.014;2023-03-20T05:10:04;99206.55;;;5.29;60.83
65010;BME280;51556;50.002;22.014;2023-03-20T05:12:30;99208.09;;;5.32;61.08
65010;BME280;51556;50.002;22.014;2023-03-20T05:14:56;99207.39;;;5.32;61.11
65010;BME280;51556;50.002;22.014;2023-03-20T05:17:22;99212.48;;;5.31;61.00
65010;BME280;51556;50.002;22.014;2023-03-20T05:19:48;99210.21;;;5.29;61.40
65010;BME280;51556;50.002;22.014;2023-03-20T05:22:17;99209.52;;;5.28;61.58
65010;BME280;51556;50.002;22.014;2023-03-20T05:24:43;99211.79;;;5.28;61.54
65010;BME280;51556;50.002;22.014;2023-03-20T05:27:08;99212.66;;;5.29;61.62
65010;BME280;51556;50.002;22.014;2023-03-20T05:29:34;99210.55;;;5.29;61.76
65010;BME280;51556;50.002;22.014;2023-03-20T05:32:00;99209.14;;;5.32;61.82
65010;BME280;51556;50.002;22.014;2023-03-20T05:34:25;99205.98;;;5.37;61.72
65010;BME280;51556;50.002;22.014;2023-03-20T05:36:52;99206.13;;;5.42;61.39
65010;BME280;51556;50.002;22.014;2023-03-20T05:39:17;99207.31;;;5.47;61.18
65010;BME280;51556;50.002;22.014;2023-03-20T05:41:43;99206.91;;;5.55;61.45
65010;BME280;51556;50.002;22.014;2023-03-20T05:44:08;99211.37;;;5.60;61.13
65010;BME280;51556;50.002;22.014;2023-03-20T05:46:36;99207.69;;;5.62;61.15
65010;BME280;51556;50.002;22.014;2023-03-20T05:49:22;99203.80;;;5.67;60.87
65010;BME280;51556;50.002;22.014;2023-03-20T05:51:57;99204.80;;;5.74;61.16
65010;BME280;51556;50.002;22.014;2023-03-20T05:54:23;99209.13;;;5.80;61.07
65010;BME280;51556;50.002;22.014;2023-03-20T05:56:48;99209.61;;;5.84;60.96
65010;BME280;51556;50.002;22.014;2023-03-20T05:59:14;99212.04;;;5.89;61.33
65010;BME280;51556;50.002;22.014;2023-03-20T06:01:39;99210.41;;;5.94;60.94
65010;BME280;51556;50.002;22.014;2023-03-20T06:04:05;99210.70;;;5.99;61.02
65010;BME280;51556;50.002;22.014;2023-03-20T06:06:31;99212.23;;;6.06;61.01
65010;BME280;51556;50.002;22.014;2023-03-20T06:08:59;99212.72;;;6.09;60.77
65010;BME280;51556;50.002;22.014;2023-03-20T06:11:25;99214.61;;;6.13;60.67
65010;BME280;51556;50.002;22.014;2023-03-20T06:13:51;99215.26;;;6.18;60.13
65010;BME280;51556;50.002;22.014;2023-03-20T06:16:21;99207.33;;;6.24;60.28
65010;BME280;51556;50.002;22.014;2023-03-20T06:18:47;99206.19;;;6.32;60.26
65010;BME280;51556;50.002;22.014;2023-03-20T06:21:13;99209.03;;;6.43;60.05
65010;BME280;51556;50.002;22.014;2023-03-20T06:23:39;99208.04;;;6.54;59.97
65010;BME280;51556;50.002;22.014;2023-03-20T06:26:04;99207.05;;;6.64;59.64
65010;BME280;51556;50.002;22.014;2023-03-20T06:28:30;99204.65;;;6.72;59.59
65010;BME280;51556;50.002;22.014;2023-03-20T06:30:56;99213.13;;;6.81;59.32
65010;BME280;51556;50.002;22.014;2023-03-20T06:33:22;99208.95;;;6.92;59.40
65010;BME280;51556;50.002;22.014;2023-03-20T06:35:47;99213.67;;;7.05;59.09
65010;BME280;51556;50.002;22.014;2023-03-20T06:38:13;99214.34;;;7.19;58.92
65010;BME280;51556;50.002;22.014;2023-03-20T06:40:39;99208.90;;;7.33;58.50
65010;BME280;51556;50.002;22.014;2023-03-20T06:43:06;99210.88;;;7.42;58.08
65010;BME280;51556;50.002;22.014;2023-03-20T06:45:31;99209.71;;;7.48;57.90
65010;BME280;51556;50.002;22.014;2023-03-20T06:47:57;99216.05;;;7.57;57.96
65010;BME280;51556;50.002;22.014;2023-03-20T06:50:22;99219.92;;;7.67;57.86
65010;BME280;51556;50.002;22.014;2023-03-20T06:52:48;99222.36;;;7.78;57.75
65010;BME280;51556;50.002;22.014;2023-03-20T06:55:13;99217.13;;;7.87;57.45
65010;BME280;51556;50.002;22.014;2023-03-20T06:57:39;99220.66;;;7.96;57.47
65010;BME280;51556;50.002;22.014;2023-03-20T07:00:06;99220.85;;;8.05;57.39
65010;BME280;51556;50.002;22.014;2023-03-20T07:02:32;99216.64;;;8.16;56.75
65010;BME280;51556;50.002;22.014;2023-03-20T07:04:57;99215.58;;;8.25;56.70
65010;BME280;51556;50.002;22.014;2023-03-20T07:07:23;99212.41;;;8.37;56.68
65010;BME280;51556;50.002;22.014;2023-03-20T07:09:48;99217.98;;;8.49;56.40
65010;BME280;51556;50.002;22.014;2023-03-20T07:12:15;99218.70;;;8.65;56.35
65010;BME280;51556;50.002;22.014;2023-03-20T07:14:42;99218.03;;;8.81;55.87
65010;BME280;51556;50.002;22.014;2023-03-20T07:17:08;99217.23;;;8.93;55.67
65010;BME280;51556;50.002;22.014;2023-03-20T07:19:35;99214.94;;;9.02;55.58
65010;BME280;51556;50.002;22.014;2023-03-20T07:22:03;99213.02;;;9.09;55.53
65010;BME280;51556;50.002;22.014;2023-03-20T07:24:29;99214.04;;;9.20;55.22
65010;BME280;51556;50.002;22.014;2023-03-20T07:26:56;99213.76;;;9.31;55.16
65010;BME280;51556;50.002;22.014;2023-03-20T07:29:21;99215.61;;;9.42;54.07
65010;BME280;51556;50.002;22.014;2023-03-20T07:31:47;99220.82;;;9.53;54.24
65010;BME280;51556;50.002;22.014;2023-03-20T07:34:12;99224.55;;;9.65;53.88
65010;BME280;51556;50.002;22.014;2023-03-20T07:36:38;99221.80;;;9.77;53.03
65010;BME280;51556;50.002;22.014;2023-03-20T07:39:03;99221.90;;;9.88;52.82
65010;BME280;51556;50.002;22.014;2023-03-20T07:41:29;99220.73;;;9.99;52.51
65010;BME280;51556;50.002;22.014;2023-03-20T07:43:55;99220.83;;;10.08;52.21
65010;BME280;51556;50.002;22.014;2023-03-20T07:46:20;99224.67;;;10.17;52.44
65010;BME280;51556;50.002;22.014;2023-03-20T07:48:46;99222.80;;;10.29;52.58
65010;BME280;51556;50.002;22.014;2023-03-20T07:51:12;99222.05;;;10.43;52.53
65010;BME280;51556;50.002;22.014;2023-03-20T07:53:37;99228.63;;;10.60;51.89
65010;BME280;51556;50.002;22.014;2023-03-20T07:56:02;99230.81;;;10.70;50.41
65010;BME280;51556;50.002;22.014;2023-03-20T07:58:28;99229.43;;;10.76;50.40
65010;BME280;51556;50.002;22.014;2023-03-20T08:00:56;99225.85;;;10.83;50.45
65010;BME280;51556;50.002;22.014;2023-03-20T08:03:21;99230.90;;;10.92;50.28
65010;BME280;51556;50.002;22.014;2023-03-20T08:05:47;99231.02;;;11.00;50.01
65010;BME280;51556;50.002;22.014;2023-03-20T08:08:12;99233.70;;;11.11;48.63
65010;BME280;51556;50.002;22.014;2023-03-20T08:10:37;99234.98;;;11.15;48.20
65010;BME280;51556;50.002;22.014;2023-03-20T08:13:03;99233.02;;;11.15;48.16
65010;BME280;51556;50.002;22.014;2023-03-20T08:15:28;99230.98;;;11.18;48.67
65010;BME280;51556;50.002;22.014;2023-03-20T08:17:54;99231.69;;;11.24;48.00
65010;BME280;51556;50.002;22.014;2023-03-20T08:20:21;99235.57;;;11.30;48.09
65010;BME280;51556;50.002;22.014;2023-03-20T08:22:47;99236.17;;;11.39;48.36
65010;BME280;51556;50.002;22.014;2023-03-20T08:25:14;99230.53;;;11.50;47.80
65010;BME280;51556;50.002;22.014;2023-03-20T08:27:39;99229.42;;;11.57;47.20
65010;BME280;51556;50.002;22.014;2023-03-20T08:30:05;99227.84;;;11.62;47.30
65010;BME280;51556;50.002;22.014;2023-03-20T08:32:31;99226.21;;;11.69;47.55
65010;BME280;51556;50.002;22.014;2023-03-20T08:34:56;99229.86;;;11.78;46.99
65010;BME280;51556;50.002;22.014;2023-03-20T08:37:22;99225.15;;;11.82;46.22
65010;BME280;51556;50.002;22.014;2023-03-20T08:39:47;99224.87;;;11.85;45.89
65010;BME280;51556;50.002;22.014;2023-03-20T08:42:13;99227.63;;;11.91;46.40
65010;BME280;51556;50.002;22.014;2023-03-20T08:44:38;99226.72;;;12.03;45.84
65010;BME280;51556;50.002;22.014;2023-03-20T08:47:04;99225.52;;;12.13;46.07
65010;BME280;51556;50.002;22.014;2023-03-20T08:49:32;99228.01;;;12.23;44.88
65010;BME280;51556;50.002;22.014;2023-03-20T08:51:58;99224.69;;;12.31;44.41
65010;BME280;51556;50.002;22.014;2023-03-20T08:54:24;99213.73;;;12.36;44.35
65010;BME280;51556;50.002;22.014;2023-03-20T08:56:49;99212.27;;;12.44;43.77
65010;BME280;51556;50.002;22.014;2023-03-20T08:59:15;99213.64;;;12.49;43.68
65010;BME280;51556;50.002;22.014;2023-03-20T09:01:41;99210.08;;;12.60;43.89
65010;BME280;51556;50.002;22.014;2023-03-20T09:04:06;99207.29;;;12.68;42.65
65010;BME280;51556;50.002;22.014;2023-03-20T09:06:35;99206.36;;;12.75;42.81
65010;BME280;51556;50.002;22.014;2023-03-20T09:09:01;99209.15;;;12.85;42.96
65010;BME280;51556;50.002;22.014;2023-03-20T09:11:27;99211.14;;;12.93;42.60
65010;BME280;51556;50.002;22.014;2023-03-20T09:13:53;99208.78;;;13.04;42.78
65010;BME280;51556;50.002;22.014;2023-03-20T09:16:18;99206.87;;;13.18;42.72
65010;BME280;51556;50.002;22.014;2023-03-20T09:18:44;99209.79;;;13.34;42.26
65010;BME280;51556;50.002;22.014;2023-03-20T09:21:10;99208.41;;;13.46;42.16
65010;BME280;51556;50.002;22.014;2023-03-20T09:23:35;99211.47;;;13.58;42.05
65010;BME280;51556;50.002;22.014;2023-03-20T09:26:01;99206.96;;;13.69;41.32
65010;BME280;51556;50.002;22.014;2023-03-20T09:28:26;99207.02;;;13.76;41.06
65010;BME280;51556;50.002;22.014;2023-03-20T09:30:56;99208.20;;;13.86;41.37
65010;BME280;51556;50.002;22.014;2023-03-20T09:33:22;99207.84;;;13.95;40.81
65010;BME280;51556;50.002;22.014;2023-03-20T09:35:48;99207.20;;;14.02;40.25
65010;BME280;51556;50.002;22.014;2023-03-20T09:38:13;99205.34;;;14.08;40.68
65010;BME280;51556;50.002;22.014;2023-03-20T09:40:55;99205.91;;;14.19;40.75
65010;BME280;51556;50.002;22.014;2023-03-20T09:49:01;99199.45;;;14.43;40.28
65010;BME280;51556;50.002;22.014;2023-03-20T09:54:33;99193.71;;;14.68;40.13
65010;BME280;51556;50.002;22.014;2023-03-20T09:57:03;99191.89;;;14.81;40.13
65010;BME280;51556;50.002;22.014;2023-03-20T09:59:31;99190.20;;;14.94;40.10
65010;BME280;51556;50.002;22.014;2023-03-20T10:02:05;99187.97;;;15.08;39.29
65010;BME280;51556;50.002;22.014;2023-03-20T10:04:36;99186.73;;;15.16;39.13
65010;BME280;51556;50.002;22.014;2023-03-20T10:07:04;99180.02;;;15.26;38.77
65010;BME280;51556;50.002;22.014;2023-03-20T10:09:30;99177.91;;;15.37;39.34
65010;BME280;51556;50.002;22.014;2023-03-20T10:17:50;99169.89;;;15.78;38.62
65010;BME280;51556;50.002;22.014;2023-03-20T10:20:32;99168.17;;;16.01;38.62
65010;BME280;51556;50.002;22.014;2023-03-20T10:23:06;99165.11;;;16.20;37.56
65010;BME280;51556;50.002;22.014;2023-03-20T10:25:42;99167.66;;;16.29;37.12
65010;BME280;51556;50.002;22.014;2023-03-20T10:28:12;99168.48;;;16.40;37.32
65010;BME280;51556;50.002;22.014;2023-03-20T10:41:31;99151.91;;;16.78;36.27
65010;BME280;51556;50.002;22.014;2023-03-20T10:43:58;99152.15;;;16.84;36.05
65010;BME280;51556;50.002;22.014;2023-03-20T10:46:34;99149.39;;;16.82;35.76
65010;BME280;51556;50.002;22.014;2023-03-20T10:49:14;99150.70;;;16.88;35.78
65010;BME280;51556;50.002;22.014;2023-03-20T10:54:32;99139.90;;;17.06;36.19
65010;BME280;51556;50.002;22.014;2023-03-20T10:57:01;99135.86;;;17.27;35.49
65010;BME280;51556;50.002;22.014;2023-03-20T10:59:39;99138.14;;;17.46;35.09
65010;BME280;51556;50.002;22.014;2023-03-20T11:02:10;99133.45;;;17.54;34.62
65010;BME280;51556;50.002;22.014;2023-03-20T11:04:36;99133.81;;;17.63;33.98
65010;BME280;51556;50.002;22.014;2023-03-20T11:09:36;99136.45;;;17.51;34.13
65010;BME280;51556;50.002;22.014;2023-03-20T11:12:02;99133.88;;;17.55;34.50
65010;BME280;51556;50.002;22.014;2023-03-20T11:14:33;99129.66;;;17.67;34.80
65010;BME280;51556;50.002;22.014;2023-03-20T11:17:02;99131.52;;;17.78;34.86
65010;BME280;51556;50.002;22.014;2023-03-20T11:19:35;99128.81;;;17.87;34.82
65010;BME280;51556;50.002;22.014;2023-03-20T11:24:46;99128.54;;;17.77;34.36
65010;BME280;51556;50.002;22.014;2023-03-20T11:27:35;99128.06;;;17.79;34.24
65010;BME280;51556;50.002;22.014;2023-03-20T11:30:03;99126.40;;;17.81;34.75
65010;BME280;51556;50.002;22.014;2023-03-20T11:32:31;99124.33;;;17.82;34.56
65010;BME280;51556;50.002;22.014;2023-03-20T11:37:52;99125.74;;;17.73;34.02
65010;BME280;51556;50.002;22.014;2023-03-20T11:40:29;99123.70;;;17.62;34.44
65010;BME280;51556;50.002;22.014;2023-03-20T11:45:37;99112.34;;;17.95;35.30
65010;BME280;51556;50.002;22.014;2023-03-20T11:48:05;99109.20;;;18.23;34.08
65010;BME280;51556;50.002;22.014;2023-03-20T11:50:41;99109.72;;;18.32;33.70
65010;BME280;51556;50.002;22.014;2023-03-20T11:53:27;99109.08;;;18.54;34.04
65010;BME280;51556;50.002;22.014;2023-03-20T11:58:35;99103.05;;;19.19;33.22
65010;BME280;51556;50.002;22.014;2023-03-20T12:01:02;99102.74;;;19.26;32.49
65010;BME280;51556;50.002;22.014;2023-03-20T12:06:25;99097.39;;;19.48;32.04
65010;BME280;51556;50.002;22.014;2023-03-20T12:08:59;99087.28;;;19.66;32.53
65010;BME280;51556;50.002;22.014;2023-03-20T12:14:18;99087.87;;;19.86;31.15
65010;BME280;51556;50.002;22.014;2023-03-20T12:16:49;99083.52;;;20.00;31.56
65010;BME280;51556;50.002;22.014;2023-03-20T12:19:19;99078.31;;;20.26;31.38
65010;BME280;51556;50.002;22.014;2023-03-20T12:21:58;99077.15;;;20.60;31.23
65010;BME280;51556;50.002;22.014;2023-03-20T12:24:44;99079.90;;;21.04;30.55
65010;BME280;51556;50.002;22.014;2023-03-20T12:27:28;99070.51;;;21.49;30.49
65010;BME280;51556;50.002;22.014;2023-03-20T12:30:17;99059.83;;;22.07;30.76
65010;BME280;51556;50.002;22.014;2023-03-20T12:35:34;99057.77;;;23.14;28.13
65010;BME280;51556;50.002;22.014;2023-03-20T12:38:23;99055.16;;;23.28;27.25
65010;BME280;51556;50.002;22.014;2023-03-20T12:40:54;99048.70;;;23.67;27.68
65010;BME280;51556;50.002;22.014;2023-03-20T12:43:41;99049.57;;;24.19;27.63
65010;BME280;51556;50.002;22.014;2023-03-20T12:46:32;99053.45;;;24.76;26.80
65010;BME280;51556;50.002;22.014;2023-03-20T12:52:50;99050.13;;;25.58;25.10
65010;BME280;51556;50.002;22.014;2023-03-20T12:58:39;99044.50;;;26.09;24.05
65010;BME280;51556;50.002;22.014;2023-03-20T13:14:51;99037.05;;;25.94;24.17
65010;BME280;51556;50.002;22.014;2023-03-20T13:17:23;99036.48;;;26.23;25.06
65010;BME280;51556;50.002;22.014;2023-03-20T13:20:24;99035.75;;;26.30;23.99
65010;BME280;51556;50.002;22.014;2023-03-20T13:23:17;99035.77;;;25.61;23.82
65010;BME280;51556;50.002;22.014;2023-03-20T13:29:22;99032.95;;;25.00;24.67
65010;BME280;51556;50.002;22.014;2023-03-20T13:32:13;99029.39;;;24.39;25.81
65010;BME280;51556;50.002;22.014;2023-03-20T13:40:25;99029.31;;;23.26;26.71
65010;BME280;51556;50.002;22.014;2023-03-20T13:43:07;99028.81;;;22.70;27.25
65010;BME280;51556;50.002;22.014;2023-03-20T13:45:39;99032.63;;;22.20;27.92
65010;BME280;51556;50.002;22.014;2023-03-20T13:51:03;99028.98;;;21.53;28.66
65010;BME280;51556;50.002;22.014;2023-03-20T13:53:37;99033.10;;;21.39;29.31
65010;BME280;51556;50.002;22.014;2023-03-20T14:04:59;99038.84;;;20.49;30.63
65010;BME280;51556;50.002;22.014;2023-03-20T14:07:32;99040.17;;;20.24;31.22
65010;BME280;51556;50.002;22.014;2023-03-20T14:15:18;99040.27;;;19.77;31.66
65010;BME280;51556;50.002;22.014;2023-03-20T14:17:46;99038.04;;;19.88;31.64
65010;BME280;51556;50.002;22.014;2023-03-20T14:20:31;99041.19;;;19.79;31.63
65010;BME280;51556;50.002;22.014;2023-03-20T14:22:58;99038.98;;;19.59;31.76
65010;BME280;51556;50.002;22.014;2023-03-20T14:25:24;99040.95;;;19.54;32.03
65010;BME280;51556;50.002;22.014;2023-03-20T14:27:59;99044.28;;;19.52;32.00
65010;BME280;51556;50.002;22.014;2023-03-20T14:33:04;99037.95;;;19.48;32.27
65010;BME280;51556;50.002;22.014;2023-03-20T14:35:35;99037.11;;;19.31;32.61
65010;BME280;51556;50.002;22.014;2023-03-20T14:38:22;99037.70;;;19.24;33.07
65010;BME280;51556;50.002;22.014;2023-03-20T14:41:07;99035.64;;;19.15;33.06
65010;BME280;51556;50.002;22.014;2023-03-20T14:46:30;99038.76;;;18.97;33.91
65010;BME280;51556;50.002;22.014;2023-03-20T14:49:13;99038.01;;;18.98;33.80
65010;BME280;51556;50.002;22.014;2023-03-20T14:55:28;99038.67;;;18.91;33.82
65010;BME280;51556;50.002;22.014;2023-03-20T14:58:04;99040.86;;;18.79;34.12
65010;BME280;51556;50.002;22.014;2023-03-20T15:00:49;99037.17;;;18.64;34.04
65010;BME280;51556;50.002;22.014;2023-03-20T15:03:16;99032.66;;;18.50;34.30
